Etusivu
METAR-TAF:

METAR-TAF

Lentoasemat :

Trent Lott International Airport

Pascagoula, Mississippi, Yhdysvallat

Leveyspiiri: 30-27-49N, Pituuspiiri: 088-31-55W, korkeus merenpinnasta: 5 m

Tämänhetkinen sää

Tämä raportti tehtiin 52 minuuttia sitten, kello 00.02 UTC
Tuuli 10 kn kaakosta
Lämpötila 22°C
Kosteus 83%
Ilmanpaine 1019 hPa
Näkyvyys: 16.1 km
Hajonneita pilviä 800 ft:n korkeudessa

METAR: KPQL 280002Z AUTO 13010KT 10SM BKN008 22/19 A3008 RMK AO2 CIG 006V011 T02170194 $

Aika: 18:54 (00:54 UTC)


TAF: puuttuu

Säähavainnot ja -ennusteet yli 4000 lentoasemalta (METAR- ja TAF-raportit).

Käytössä olevat sääasemat on merkitty karttaan keltaisilla ja punaisilla pisteillä.

Aseta hiiri pisteen päälle nähdäksesi sääaseman nimen.

Klikkaa sitten nähdäksesi säähavainnot ja -ennusteet.

Kartan vaihtaminen: klikkaa mustalla rastilla varustettuja vihreitä pisteitä, niin voit zoomata sisään; viivalla varustettua vihreää pistettä, niin voit zoomata ulos tai vihreitä nuolia, niin pääset viereisille kartoille.


METAR-TAF: